Time;durP1;ratioP1;P1;durP2;ratioP2;P2;SDS_P1;SDS_P2;PMS_P1;PMS_P2;Temp;Humidity;BMP_temperature;BMP_pressure;BME280_temperature;BME280_humidity;BME280_pressure;Samples;Min_cycle;Max_cycle;Signal;HPM_P1;HPM_P2
2021/11/17 02:27:03;;;;;;;97.37;38.90;;;;;;;-7.56;100.00;101471.63;1720988;83;21150;-80
2021/11/17 02:29:41;;;;;;;96.47;39.65;;;;;;;-7.58;100.00;101470.66;1718131;83;21081;-82
2021/11/17 02:32:43;;;;;;;91.43;39.47;;;;;;;-7.57;100.00;101465.61;1716198;83;21044;-77
2021/11/17 02:35:42;;;;;;;91.20;35.07;;;;;;;-7.57;100.00;101472.00;1652541;86;21062;-77
2021/11/17 02:38:20;;;;;;;97.73;37.33;;;;;;;-7.54;100.00;101466.20;1707502;83;21080;-77
2021/11/17 02:41:31;;;;;;;109.70;43.10;;;;;;;-7.54;100.00;101468.36;1717626;83;21469;-77
2021/11/17 02:44:23;;;;;;;109.07;44.47;;;;;;;-7.54;100.00;101461.09;1717219;82;21588;-76
2021/11/17 02:47:23;;;;;;;102.87;38.73;;;;;;;-7.54;100.00;101470.05;1717476;82;21076;-77
2021/11/17 02:50:13;;;;;;;74.17;30.83;;;;;;;-7.56;100.00;101464.83;1717185;82;21079;-77
2021/11/17 02:53:27;;;;;;;99.97;39.70;;;;;;;-7.58;100.00;101458.73;1716878;83;21586;-76
2021/11/17 02:56:11;;;;;;;108.60;40.53;;;;;;;-7.57;100.00;101464.33;1717223;83;21152;-75
2021/11/17 02:58:55;;;;;;;85.37;33.60;;;;;;;-7.58;100.00;101461.70;1717452;83;21579;-77
2021/11/17 03:01:48;;;;;;;102.13;43.70;;;;;;;-7.58;100.00;101461.30;1717294;82;21068;-76
2021/11/17 03:04:40;;;;;;;96.13;40.03;;;;;;;-7.57;100.00;101464.33;1678307;85;21137;-76
2021/11/17 03:07:27;;;;;;;116.50;43.90;;;;;;;-7.58;100.00;101465.13;1678697;85;21096;-80
2021/11/17 03:10:11;;;;;;;107.30;41.27;;;;;;;-7.59;99.96;101465.95;1703897;83;21524;-80
2021/11/17 03:13:16;;;;;;;109.47;43.83;;;;;;;-7.62;99.83;101458.95;1715077;83;21076;-81
2021/11/17 03:16:03;;;;;;;100.07;41.00;;;;;;;-7.61;99.92;101461.13;1713849;83;21076;-81
2021/11/17 03:19:03;;;;;;;120.60;47.63;;;;;;;-7.61;99.98;101457.30;1714590;83;21056;-81
2021/11/17 03:21:56;;;;;;;111.87;47.23;;;;;;;-7.60;100.00;101453.92;1714834;83;21080;-80
2021/11/17 03:24:40;;;;;;;101.03;43.17;;;;;;;-7.58;100.00;101454.91;1713984;83;21112;-78
2021/11/17 03:27:32;;;;;;;90.47;35.90;;;;;;;-7.58;100.00;101460.02;1707043;83;21017;-78
2021/11/17 03:30:16;;;;;;;116.03;44.83;;;;;;;-7.56;100.00;101452.44;1714541;83;21017;-78
2021/11/17 03:33:08;;;;;;;120.20;45.37;;;;;;;-7.56;100.00;101449.48;1714602;83;21551;-78
2021/11/17 03:35:49;;;;;;;118.83;48.63;;;;;;;-7.56;100.00;101449.88;1707459;83;21032;-79
2021/11/17 03:38:22;;;;;;;122.10;49.60;;;;;;;-7.57;100.00;101453.22;1711461;83;21146;-78
2021/11/17 03:41:03;;;;;;;111.53;41.43;;;;;;;-7.60;100.00;101447.13;1714726;83;21082;-81
2021/11/17 03:43:38;;;;;;;111.37;44.83;;;;;;;-7.62;100.00;101449.12;1714642;83;21107;-79
2021/11/17 03:46:19;;;;;;;120.80;49.00;;;;;;;-7.63;100.00;101453.77;1714279;83;21005;-77
2021/11/17 03:49:23;;;;;;;120.77;49.67;;;;;;;-7.66;100.00;101452.28;1704979;83;21566;-77
2021/11/17 03:52:01;;;;;;;124.63;49.10;;;;;;;-7.67;100.00;101446.70;1735782;82;21810;-81
2021/11/17 03:54:43;;;;;;;123.40;48.70;;;;;;;-7.68;100.00;101442.39;1740078;82;21083;-82
2021/11/17 03:57:30;;;;;;;96.30;38.53;;;;;;;-7.67;100.00;101446.30;1740454;82;21111;-81
2021/11/17 04:00:28;;;;;;;102.17;42.60;;;;;;;-7.67;100.00;101453.97;1739374;82;21512;-78
2021/11/17 04:03:18;;;;;;;111.70;41.77;;;;;;;-7.65;100.00;101451.52;1740241;80;21083;-80
2021/11/17 04:06:05;;;;;;;94.47;40.73;;;;;;;-7.65;100.00;101445.11;1733745;81;21180;-79
2021/11/17 04:08:43;;;;;;;77.00;31.27;;;;;;;-7.67;100.00;101447.58;1740368;82;21032;-80
2021/11/17 04:11:22;;;;;;;98.73;41.30;;;;;;;-7.67;100.00;101439.03;1723706;82;21073;-82
2021/11/17 04:14:24;;;;;;;80.53;30.80;;;;;;;-7.77;100.00;101427.80;1713436;83;21026;-82
2021/11/17 04:16:56;;;;;;;89.20;38.23;;;;;;;-7.74;100.00;101437.79;1713374;83;21010;-79
2021/11/17 04:20:04;;;;;;;89.13;38.07;;;;;;;-7.76;100.00;101439.77;1730852;81;21150;-74
2021/11/17 04:22:46;;;;;;;89.07;37.20;;;;;;;-7.77;100.00;101441.86;1706598;82;21613;-74
2021/11/17 04:25:43;;;;;;;75.77;31.50;;;;;;;-7.81;100.00;101440.38;1732390;81;21221;-75
2021/11/17 04:28:49;;;;;;;93.07;36.83;;;;;;;-7.83;100.00;101437.25;1708027;82;21086;-73
2021/11/17 04:31:36;;;;;;;89.97;37.87;;;;;;;-7.84;100.00;101441.90;1688170;84;21060;-72
2021/11/17 04:34:28;;;;;;;88.83;39.63;;;;;;;-7.90;100.00;101432.58;1689036;84;21149;-74
2021/11/17 04:37:06;;;;;;;63.73;27.90;;;;;;;-7.92;100.00;101429.92;1689088;84;21108;-74
2021/11/17 04:40:06;;;;;;;71.07;32.50;;;;;;;-7.95;100.00;101439.11;1690591;84;20993;-73
2021/11/17 04:43:10;;;;;;;91.47;39.83;;;;;;;-7.98;100.00;101427.03;1690717;84;21094;-75
2021/11/17 04:46:31;;;;;;;92.63;39.23;;;;;;;-8.00;100.00;101427.34;1688292;84;21096;-76
2021/11/17 04:49:30;;;;;;;83.30;35.92;;;;;;;-8.00;100.00;101424.78;1688460;84;21088;-73
2021/11/17 04:52:20;;;;;;;98.77;39.47;;;;;;;-8.03;100.00;101419.09;1688474;84;21064;-73
2021/11/17 04:54:52;;;;;;;92.42;38.45;;;;;;;-8.01;100.00;101419.16;1690484;84;21057;-74
2021/11/17 04:57:43;;;;;;;84.33;37.67;;;;;;;-7.98;100.00;101421.92;1697419;82;21086;-75
2021/11/17 05:00:30;;;;;;;78.27;31.30;;;;;;;-7.99;100.00;101421.41;1711612;82;21033;-75
2021/11/17 05:03:10;;;;;;;80.47;34.60;;;;;;;-8.00;100.00;101413.27;1728422;79;21139;-74
2021/11/17 05:05:57;;;;;;;76.43;34.47;;;;;;;-7.99;100.00;101416.30;1701922;83;21101;-74
2021/11/17 05:08:31;;;;;;;90.10;38.43;;;;;;;-8.00;100.00;101417.11;1715898;83;22140;-73
2021/11/17 05:11:25;;;;;;;100.33;38.90;;;;;;;-7.99;100.00;101419.27;1730861;81;21104;-74
2021/11/17 05:14:31;;;;;;;81.73;35.40;;;;;;;-8.00;100.00;101418.39;1730661;81;21028;-75
2021/11/17 05:17:33;;;;;;;92.17;36.37;;;;;;;-7.99;100.00;101416.30;1749478;81;21294;-76
2021/11/17 05:20:15;;;;;;;105.73;38.17;;;;;;;-7.97;100.00;101418.55;1714592;83;21045;-73
2021/11/17 05:22:53;;;;;;;95.30;38.00;;;;;;;-7.96;100.00;101420.30;1750669;81;21061;-74
2021/11/17 05:25:44;;;;;;;102.87;39.60;;;;;;;-7.94;100.00;101413.61;1730824;81;21347;-76
2021/11/17 05:28:36;;;;;;;76.50;34.07;;;;;;;-7.90;100.00;101417.23;1724320;81;21046;-72
2021/11/17 05:31:29;;;;;;;84.07;32.73;;;;;;;-7.94;100.00;101414.89;1722179;81;21116;-74
2021/11/17 05:34:18;;;;;;;93.23;40.10;;;;;;;-7.94;100.00;101411.45;1721542;81;21395;-75
2021/11/17 05:37:03;;;;;;;106.70;41.20;;;;;;;-7.90;100.00;101412.13;1725217;81;21654;-74
2021/11/17 05:39:51;;;;;;;99.17;41.13;;;;;;;-7.86;100.00;101408.55;1723436;81;21670;-75
2021/11/17 05:42:38;;;;;;;114.97;43.90;;;;;;;-7.84;100.00;101418.48;1722269;81;21353;-75
2021/11/17 05:45:38;;;;;;;101.23;40.47;;;;;;;-7.78;100.00;101414.50;1721738;81;22016;-74
2021/11/17 05:48:12;;;;;;;105.20;38.83;;;;;;;-7.74;100.00;101420.28;1721027;81;21067;-75
2021/11/17 05:51:12;;;;;;;105.37;41.47;;;;;;;-7.68;100.00;101419.37;1727515;83;21550;-74
2021/11/17 05:53:56;;;;;;;116.00;43.45;;;;;;;-7.65;100.00;101418.25;1679208;85;21661;-74
2021/11/17 05:56:37;;;;;;;126.20;47.07;;;;;;;-7.58;100.00;101420.36;1712035;81;21115;-73
2021/11/17 05:59:29;;;;;;;114.73;43.60;;;;;;;-7.51;100.00;101402.00;1695947;84;22199;-75
2021/11/17 06:02:21;;;;;;;112.97;43.00;;;;;;;-7.44;100.00;101410.50;1695785;83;21076;-75
2021/11/17 06:04:47;;;;;;;114.47;46.17;;;;;;;-7.30;100.00;101406.15;1747466;81;21032;-74
2021/11/17 06:07:15;;;;;;;111.40;44.73;;;;;;;-6.92;100.00;101409.03;1712927;83;21524;-76
2021/11/17 06:09:41;;;;;;;120.73;50.20;;;;;;;-6.30;100.00;101399.95;1727125;83;22289;-75
2021/11/17 06:12:11;;;;;;;124.20;46.57;;;;;;;-5.63;100.00;101395.12;1721229;83;21996;-76
2021/11/17 06:14:47;;;;;;;117.27;48.70;;;;;;;-4.86;100.00;101388.91;1719866;81;21553;-74
2021/11/17 06:17:20;;;;;;;138.15;48.68;;;;;;;-4.03;100.00;101393.83;1734159;81;21289;-74
2021/11/17 06:19:49;;;;;;;118.37;48.65;;;;;;;-3.18;99.90;101376.23;1722636;81;21360;-76
2021/11/17 06:22:18;;;;;;;107.67;46.83;;;;;;;-2.43;97.95;101385.90;1724584;81;21603;-77
2021/11/17 06:24:47;;;;;;;124.25;52.35;;;;;;;-1.85;96.50;101375.84;1720179;82;21162;-76
2021/11/17 06:30:07;;;;;;;131.23;56.17;;;;;;;-0.63;90.88;101369.70;1782632;79;22502;-76
2021/11/17 06:32:34;;;;;;;121.15;58.05;;;;;;;-0.08;93.59;101374.22;1752661;81;21635;-75
2021/11/17 06:35:02;;;;;;;149.85;61.98;;;;;;;0.48;89.45;101369.99;1749534;81;21069;-75
2021/11/17 06:37:29;;;;;;;131.87;61.75;;;;;;;0.95;84.54;101367.64;1746206;81;21053;-75
2021/11/17 06:40:01;;;;;;;133.75;58.35;;;;;;;1.43;82.94;101369.09;1752407;81;21064;-77
2021/11/17 06:42:37;;;;;;;143.30;63.73;;;;;;;1.92;78.78;101365.68;1750269;81;21017;-75
2021/11/17 06:45:10;;;;;;;135.35;62.50;;;;;;;2.42;77.19;101363.08;1747479;81;21567;-77
2021/11/17 06:47:37;;;;;;;131.20;62.25;;;;;;;2.91;75.04;101363.37;1747042;81;21544;-76
2021/11/17 06:50:04;;;;;;;101.65;51.55;;;;;;;3.38;72.51;101362.67;1749029;81;21639;-77
2021/11/17 06:52:31;;;;;;;87.20;44.50;;;;;;;3.79;68.73;101360.09;1724031;81;21166;-76
2021/11/17 06:54:57;;;;;;;87.70;42.60;;;;;;;4.20;65.28;101354.84;1746760;80;21021;-75
2021/11/17 06:57:24;;;;;;;80.90;39.42;;;;;;;4.36;64.23;101350.20;1744669;80;21061;-77
2021/11/17 06:59:50;;;;;;;83.42;44.00;;;;;;;4.65;63.32;101354.77;1746633;80;21108;-79
2021/11/17 07:02:16;;;;;;;75.85;40.75;;;;;;;4.81;61.52;101348.79;1761169;80;21600;-71
2021/11/17 07:04:43;;;;;;;75.28;39.05;;;;;;;5.05;60.94;101350.65;1782071;80;21039;-72
2021/11/17 07:07:13;;;;;;;75.67;39.18;;;;;;;5.38;58.87;101353.41;1763848;80;21045;-71
2021/11/17 07:09:41;;;;;;;68.62;37.53;;;;;;;5.62;57.80;101350.88;1769977;80;21086;-70
2021/11/17 07:12:09;;;;;;;61.75;35.70;;;;;;;5.89;56.06;101352.70;1778360;80;21184;-71
2021/11/17 07:14:35;;;;;;;69.97;35.33;;;;;;;6.06;55.22;101351.44;1780311;80;21100;-71
2021/11/17 07:17:03;;;;;;;65.00;34.25;;;;;;;6.21;54.17;101352.31;1779680;80;21119;-71
2021/11/17 07:19:30;;;;;;;69.65;35.38;;;;;;;6.31;52.68;101354.08;1755132;80;21128;-72
2021/11/17 07:21:58;;;;;;;55.20;32.80;;;;;;;6.41;52.17;101349.27;1768272;80;21074;-71
2021/11/17 07:24:27;;;;;;;61.18;33.25;;;;;;;6.51;52.08;101347.09;1781921;80;21114;-71
2021/11/17 07:26:54;;;;;;;63.75;35.00;;;;;;;6.61;50.95;101354.94;1775781;80;21021;-70
2021/11/17 07:29:21;;;;;;;69.25;36.45;;;;;;;6.49;50.85;101352.76;1772355;80;21684;-71
2021/11/17 07:31:47;;;;;;;66.30;34.98;;;;;;;6.42;51.28;101352.74;1762197;81;21054;-70
2021/11/17 07:34:14;;;;;;;65.25;34.60;;;;;;;6.54;51.86;101357.99;1685234;84;21166;-71
2021/11/17 07:36:41;;;;;;;63.25;34.27;;;;;;;6.59;50.47;101359.30;1683269;83;21106;-70
2021/11/17 07:39:13;;;;;;;63.00;35.28;;;;;;;6.54;50.47;101353.20;1717967;83;21089;-71
2021/11/17 07:41:37;;;;;;;63.90;33.75;;;;;;;6.42;51.33;101360.18;1719110;83;21572;-71
2021/11/17 07:44:04;;;;;;;62.67;33.50;;;;;;;6.56;50.54;101355.38;1684936;83;21075;-69
2021/11/17 07:46:31;;;;;;;63.87;33.55;;;;;;;6.64;50.24;101357.53;1709412;83;21105;-70
2021/11/17 07:48:58;;;;;;;65.95;35.08;;;;;;;6.92;50.89;101355.33;1683273;84;22043;-71
2021/11/17 07:51:25;;;;;;;66.22;34.03;;;;;;;7.16;49.41;101351.33;1690510;84;21079;-71
2021/11/17 07:53:52;;;;;;;57.08;33.20;;;;;;;7.41;49.62;101349.04;1711292;83;21226;-71
2021/11/17 07:56:19;;;;;;;65.60;34.85;;;;;;;7.85;48.85;101347.05;1705324;83;21121;-71
2021/11/17 07:58:46;;;;;;;59.05;34.23;;;;;;;8.02;46.29;101350.42;1710966;83;21087;-70
2021/11/17 08:01:14;;;;;;;75.25;33.80;;;;;;;7.74;46.69;101347.11;1702358;83;21527;-72
2021/11/17 08:03:43;;;;;;;64.97;32.93;;;;;;;7.75;46.48;101354.98;1689327;84;21058;-71
2021/11/17 08:06:12;;;;;;;69.27;38.45;;;;;;;7.66;46.71;101349.79;1691920;84;21094;-71
2021/11/17 08:08:39;;;;;;;65.72;36.98;;;;;;;7.70;47.25;101351.48;1682372;84;21102;-71
2021/11/17 08:11:10;;;;;;;60.48;33.13;;;;;;;7.85;47.24;101348.37;1683154;84;21138;-71
2021/11/17 08:13:37;;;;;;;62.25;33.50;;;;;;;8.03;46.71;101340.38;1707104;83;21081;-71
2021/11/17 08:16:05;;;;;;;53.40;29.90;;;;;;;8.33;45.57;101345.82;1713168;83;22187;-72
2021/11/17 08:18:33;;;;;;;51.98;28.70;;;;;;;8.52;45.20;101339.99;1704758;83;21047;-71
2021/11/17 08:21:01;;;;;;;55.50;26.62;;;;;;;8.72;45.27;101344.17;1721958;83;21581;-70
2021/11/17 08:23:28;;;;;;;53.30;27.32;;;;;;;8.82;44.20;101334.87;1708617;82;21056;-70
2021/11/17 08:25:55;;;;;;;47.93;25.65;;;;;;;8.90;44.24;101342.66;1694295;82;21106;-71
2021/11/17 08:28:21;;;;;;;44.30;22.95;;;;;;;8.71;44.17;101338.05;1692418;83;21096;-72
2021/11/17 08:30:48;;;;;;;39.13;23.62;;;;;;;8.55;43.32;101343.89;1761259;80;21077;-70
2021/11/17 08:33:15;;;;;;;38.58;21.93;;;;;;;8.50;44.60;101343.52;1775114;80;21044;-71
2021/11/17 08:35:42;;;;;;;34.08;20.82;;;;;;;8.79;43.63;101339.31;1770710;80;21707;-71
2021/11/17 08:38:11;;;;;;;38.35;21.60;;;;;;;9.01;42.38;101340.80;1757462;80;21503;-71
2021/11/17 08:40:44;;;;;;;44.45;23.02;;;;;;;9.19;42.26;101337.54;1760794;80;21056;-72
2021/11/17 08:43:11;;;;;;;40.65;22.45;;;;;;;9.28;41.62;101345.77;1747476;82;21000;-69
2021/11/17 08:45:39;;;;;;;37.70;20.92;;;;;;;9.58;40.74;101333.52;1747659;80;21522;-71
2021/11/17 08:48:08;;;;;;;41.05;21.55;;;;;;;9.54;40.42;101337.53;1768735;80;21100;-70
2021/11/17 08:50:38;;;;;;;37.25;20.85;;;;;;;9.60;41.18;101325.63;1746405;82;21128;-70
2021/11/17 08:53:10;;;;;;;45.03;22.32;;;;;;;9.64;40.40;101326.02;1747076;82;21052;-70
2021/11/17 08:55:36;;;;;;;33.33;20.08;;;;;;;9.63;40.41;101320.31;1747156;82;21077;-70
2021/11/17 08:58:05;;;;;;;35.45;20.65;;;;;;;9.59;40.41;101316.88;1746925;82;21052;-70
2021/11/17 09:00:32;;;;;;;36.93;18.87;;;;;;;9.45;40.01;101318.80;1746947;82;21040;-70
2021/11/17 09:03:00;;;;;;;38.38;21.65;;;;;;;9.58;40.09;101312.94;1747302;82;21939;-70
2021/11/17 09:05:31;;;;;;;36.30;19.55;;;;;;;9.80;40.93;101313.06;1747126;82;21084;-70
2021/11/17 09:07:59;;;;;;;31.48;18.12;;;;;;;9.78;39.39;101312.66;1746955;80;21028;-71
2021/11/17 09:10:30;;;;;;;30.95;18.05;;;;;;;9.64;39.21;101316.80;1757070;80;21542;-70
2021/11/17 09:12:57;;;;;;;33.58;18.95;;;;;;;9.41;39.10;101313.18;1778315;80;21033;-70
2021/11/17 09:15:28;;;;;;;40.05;21.15;;;;;;;9.47;39.59;101304.33;1777708;80;21148;-69
2021/11/17 09:17:54;;;;;;;33.58;18.80;;;;;;;9.47;40.07;101300.38;1776528;80;21049;-71
2021/11/17 09:20:23;;;;;;;34.48;19.45;;;;;;;9.57;39.08;101296.72;1747202;82;21044;-71
2021/11/17 09:22:50;;;;;;;35.35;18.48;;;;;;;9.78;38.76;101285.90;1747467;82;21028;-71
2021/11/17 09:25:18;;;;;;;30.35;15.50;;;;;;;9.81;38.84;101291.10;1747177;82;21028;-70
2021/11/17 09:27:45;;;;;;;24.20;14.73;;;;;;;9.83;39.26;101280.56;1747748;82;21090;-71
2021/11/17 09:30:15;;;;;;;27.13;14.73;;;;;;;10.03;37.74;101282.44;1747072;81;20998;-71
2021/11/17 09:32:42;;;;;;;27.62;15.10;;;;;;;10.02;37.70;101271.92;1747591;82;21976;-71
2021/11/17 09:35:12;;;;;;;30.27;14.90;;;;;;;10.27;38.28;101266.66;1747030;80;21044;-71
2021/11/17 09:37:40;;;;;;;26.10;15.23;;;;;;;10.64;37.12;101270.42;1749077;80;22108;-70
2021/11/17 09:40:09;;;;;;;27.05;15.03;;;;;;;10.91;37.40;101267.70;1774665;80;21113;-72
2021/11/17 09:42:37;;;;;;;26.60;14.63;;;;;;;11.02;36.76;101262.19;1776653;80;21054;-71
2021/11/17 09:45:08;;;;;;;21.57;13.62;;;;;;;10.75;36.48;101263.64;1763750;80;21026;-71
2021/11/17 09:47:34;;;;;;;;;;;;;;;10.63;36.80;101251.13;1754381;80;21068;-71
2021/11/17 09:50:21;;;;;;;21.90;13.70;;;;;;;10.58;37.31;101256.94;1749267;80;20184;-71
2021/11/17 09:53:02;;;;;;;24.70;13.78;;;;;;;10.42;36.78;101243.18;1747320;80;21513;-70
2021/11/17 09:55:37;;;;;;;26.20;14.87;;;;;;;10.46;36.59;101247.92;1755787;80;21041;-71
2021/11/17 09:58:09;;;;;;;23.18;12.82;;;;;;;10.58;36.34;101246.39;1747627;80;21041;-71
2021/11/17 10:00:47;;;;;;;26.75;13.78;;;;;;;10.52;36.52;101243.87;1750893;80;21115;-71
2021/11/17 10:03:31;;;;;;;29.32;15.18;;;;;;;10.57;36.53;101243.33;1752842;80;21211;-71
2021/11/17 10:14:25;;;;;;;23.60;13.05;;;;;;;11.43;34.97;101224.82;1774234;80;21064;-69
2021/11/17 10:16:52;;;;;;;25.77;13.95;;;;;;;11.22;34.57;101222.22;1768004;80;21119;-71
2021/11/17 10:19:33;;;;;;;31.35;13.20;;;;;;;11.04;35.78;101224.38;1766057;80;21112;-71
2021/11/17 10:22:07;;;;;;;23.90;12.73;;;;;;;11.04;35.24;101229.65;1749012;80;21480;-71
2021/11/17 10:24:45;;;;;;;23.22;13.45;;;;;;;11.15;34.56;101231.17;1746987;82;21075;-70
2021/11/17 10:27:16;;;;;;;21.85;12.37;;;;;;;10.38;35.39;101225.70;1755896;80;21025;-71
2021/11/17 10:30:03;;;;;;;24.60;13.75;;;;;;;9.98;36.40;101224.17;1767771;80;21053;-70
2021/11/17 10:32:41;;;;;;;26.82;14.63;;;;;;;9.73;36.84;101233.81;1752803;81;22002;-72
2021/11/17 10:35:24;;;;;;;24.05;13.43;;;;;;;9.53;37.65;101224.05;1755617;80;21099;-70
2021/11/17 10:38:06;;;;;;;25.80;13.75;;;;;;;9.40;37.70;101221.58;1769822;80;20982;-70
2021/11/17 10:40:46;;;;;;;22.93;13.18;;;;;;;9.45;37.56;101213.20;1747196;80;21084;-71
2021/11/17 10:43:24;;;;;;;21.73;12.47;;;;;;;9.62;36.94;101214.70;1767948;80;21068;-70
2021/11/17 10:46:00;;;;;;;25.00;13.32;;;;;;;9.68;37.17;101209.77;1761036;80;21830;-70
2021/11/17 10:48:39;;;;;;;27.80;14.65;;;;;;;9.93;36.91;101203.66;1751598;80;21095;-70
2021/11/17 10:51:27;;;;;;;28.50;13.98;;;;;;;10.23;36.74;101200.47;1757873;80;21032;-71
2021/11/17 10:53:56;;;;;;;31.37;14.07;;;;;;;10.57;36.49;101197.23;1777396;80;21072;-71
2021/11/17 10:56:25;;;;;;;24.10;13.90;;;;;;;10.68;33.89;101189.98;1771596;80;20970;-70
2021/11/17 10:58:58;;;;;;;24.40;12.85;;;;;;;10.18;34.54;101183.89;1771112;80;22108;-74
2021/11/17 11:01:30;;;;;;;23.57;14.45;;;;;;;10.02;35.88;101183.30;1765818;80;21292;-71
2021/11/17 11:04:09;;;;;;;25.40;14.87;;;;;;;9.92;35.77;101192.73;1753256;80;21021;-71
2021/11/17 11:07:03;;;;;;;28.85;14.45;;;;;;;9.28;36.58;101187.59;1760992;80;21025;-72
2021/11/17 11:09:41;;;;;;;29.15;14.55;;;;;;;8.89;37.20;101180.69;1753164;80;21059;-72
2021/11/17 11:12:09;;;;;;;39.65;17.85;;;;;;;8.72;38.16;101173.45;1752508;80;21773;-72
2021/11/17 11:14:41;;;;;;;32.23;17.50;;;;;;;8.67;38.78;101168.72;1783916;80;21005;-71
2021/11/17 11:17:29;;;;;;;30.57;17.07;;;;;;;8.72;38.56;101161.64;1740564;80;21044;-70
2021/11/17 11:20:24;;;;;;;29.98;15.72;;;;;;;8.80;38.40;101165.91;1771082;80;21064;-72
2021/11/17 11:23:15;;;;;;;30.65;16.27;;;;;;;8.76;38.87;101156.78;1775347;80;21080;-72
2021/11/17 11:26:08;;;;;;;25.85;13.48;;;;;;;9.07;38.74;101149.81;1725923;81;21914;-73
2021/11/17 11:28:49;;;;;;;29.85;15.50;;;;;;;9.63;36.92;101153.30;1752841;81;21009;-73
2021/11/17 11:31:30;;;;;;;23.92;12.78;;;;;;;9.30;36.49;101155.58;1753512;80;21152;-72
2021/11/17 11:34:02;;;;;;;27.77;15.10;;;;;;;8.81;36.36;101148.39;1778011;80;21076;-72
2021/11/17 11:36:46;;;;;;;33.18;15.75;;;;;;;8.65;37.40;101150.80;1783954;80;20970;-73
2021/11/17 11:39:19;;;;;;;38.53;16.85;;;;;;;8.38;38.08;101156.80;1783835;80;21198;-71
2021/11/17 11:42:08;;;;;;;33.73;16.23;;;;;;;8.46;38.31;101148.40;1784154;80;21005;-70
2021/11/17 11:44:46;;;;;;;29.98;15.25;;;;;;;8.35;37.84;101148.93;1783441;80;20973;-69
2021/11/17 11:47:23;;;;;;;31.95;14.98;;;;;;;8.23;38.35;101146.45;1761921;80;21088;-69
2021/11/17 11:50:01;;;;;;;24.35;14.25;;;;;;;8.32;39.12;101133.23;1755191;80;21554;-71
2021/11/17 11:52:37;;;;;;;27.45;14.75;;;;;;;8.54;37.66;101137.38;1759814;80;21145;-71
2021/11/17 11:55:11;;;;;;;31.05;14.60;;;;;;;8.38;38.06;101131.41;1757196;80;21567;-70
2021/11/17 11:57:55;;;;;;;25.80;14.90;;;;;;;8.40;38.44;101131.43;1753905;79;21579;-71
2021/11/17 12:00:31;;;;;;;34.25;17.67;;;;;;;8.32;38.79;101126.22;1758064;79;22183;-70
2021/11/17 12:03:07;;;;;;;158.52;50.17;;;;;;;8.47;39.11;101120.41;1775765;80;21064;-71
2021/11/17 12:05:42;;;;;;;41.58;17.85;;;;;;;8.55;38.49;101125.11;1755458;79;21134;-72
2021/11/17 12:08:23;;;;;;;39.13;16.50;;;;;;;8.67;38.63;101113.12;1752770;80;21036;-71
2021/11/17 12:11:08;;;;;;;39.33;15.83;;;;;;;8.96;38.11;101100.03;1752903;80;21032;-70
2021/11/17 12:13:42;;;;;;;28.83;14.23;;;;;;;9.23;37.54;101114.52;1752796;81;21630;-71
2021/11/17 12:16:20;;;;;;;35.08;15.15;;;;;;;9.12;36.31;101108.56;1753279;80;21084;-71
2021/11/17 12:19:03;;;;;;;25.88;13.48;;;;;;;8.80;37.07;101099.39;1761180;80;21253;-71
2021/11/17 12:21:44;;;;;;;28.27;14.90;;;;;;;8.57;37.30;101112.83;1759787;79;21069;-71
2021/11/17 12:24:23;;;;;;;69.60;22.77;;;;;;;8.36;38.95;101108.69;1753319;80;21511;-70
2021/11/17 12:27:08;;;;;;;29.83;14.87;;;;;;;8.31;38.07;101111.83;1767515;79;21040;-71
2021/11/17 12:29:48;;;;;;;33.85;16.10;;;;;;;8.06;38.42;101109.47;1763144;80;21092;-72
2021/11/17 12:32:35;;;;;;;39.60;17.80;;;;;;;7.75;38.63;101111.11;1766953;80;21149;-71
2021/11/17 12:35:22;;;;;;;24.27;13.43;;;;;;;7.38;39.40;101109.69;1753797;80;21591;-70
2021/11/17 12:37:57;;;;;;;38.15;17.95;;;;;;;7.05;40.38;101109.06;1749631;81;21028;-70
2021/11/17 12:40:48;;;;;;;42.03;18.32;;;;;;;7.06;40.59;101108.17;1762027;80;21539;-70
2021/11/17 12:43:28;;;;;;;;;;;;;;;7.19;41.61;101108.52;1755504;80;22100;-70
2021/11/17 12:46:27;;;;;;;50.85;21.23;;;;;;;7.30;40.28;101104.06;1751994;80;21157;-72
2021/11/17 12:49:13;;;;;;;28.77;14.58;;;;;;;7.19;40.35;101101.97;1745596;80;21057;-73
2021/11/17 12:52:13;;;;;;;27.05;14.05;;;;;;;6.68;41.59;101107.53;1774066;80;21056;-71
2021/11/17 12:54:54;;;;;;;34.27;16.95;;;;;;;6.63;42.18;101100.60;1759840;80;21060;-71
2021/11/17 12:57:28;;;;;;;35.48;16.48;;;;;;;6.73;42.26;101098.34;1752477;80;21618;-71
2021/11/17 13:00:03;;;;;;;36.45;15.60;;;;;;;6.74;42.52;101094.87;1776482;80;21047;-70
2021/11/17 13:02:38;;;;;;;26.97;13.13;;;;;;;6.46;42.81;101092.36;1775929;79;21108;-71
2021/11/17 13:05:22;;;;;;;37.17;17.73;;;;;;;5.92;43.47;101092.13;1752825;81;21000;-71
2021/11/17 13:08:05;;;;;;;39.15;16.90;;;;;;;5.51;44.74;101087.39;1714951;80;21027;-69
2021/11/17 13:10:51;;;;;;;42.43;16.95;;;;;;;5.21;45.64;101099.58;1776588;80;21100;-70
2021/11/17 13:13:25;;;;;;;27.73;13.58;;;;;;;5.07;46.51;101097.40;1763514;80;21138;-70
2021/11/17 13:16:03;;;;;;;28.95;13.88;;;;;;;4.82;46.32;101089.52;1753245;80;21103;-70
2021/11/17 13:18:41;;;;;;;36.88;15.05;;;;;;;4.48;47.08;101096.39;1764805;80;21036;-70
2021/11/17 13:21:15;;;;;;;32.28;15.75;;;;;;;4.29;47.72;101095.45;1781603;80;21048;-71
2021/11/17 13:24:16;;;;;;;30.97;15.83;;;;;;;4.13;48.22;101097.55;1761447;80;21103;-70
2021/11/17 13:26:45;;;;;;;;;;;;;;;4.10;48.11;101097.55;1762191;80;21032;-70
2021/11/17 13:29:31;;;;;;;36.08;16.77;;;;;;;4.03;49.24;101100.55;1762697;80;20187;-71
2021/11/17 13:32:13;;;;;;;37.28;15.20;;;;;;;3.81;48.90;101102.59;1748883;80;21031;-70
2021/11/17 13:34:42;;;;;;;;;;;;;;;3.43;50.04;101094.96;1750881;80;21083;-70
2021/11/17 13:37:38;;;;;;;30.88;13.40;;;;;;;3.24;49.93;101099.55;1754430;80;20208;-70
2021/11/17 13:40:09;;;;;;;39.00;15.83;;;;;;;2.90;50.95;101095.37;1709438;83;21109;-70
2021/11/17 13:42:36;;;;;;;37.03;16.67;;;;;;;2.59;51.50;101100.23;1681157;84;21073;-70
2021/11/17 13:45:10;;;;;;;36.15;16.57;;;;;;;2.30;52.29;101092.98;1691707;83;21132;-70
2021/11/17 13:47:38;;;;;;;29.87;13.78;;;;;;;2.15;53.00;101096.67;1691679;83;21089;-71
2021/11/17 13:50:06;;;;;;;33.92;16.57;;;;;;;1.94;53.88;101096.41;1681520;83;21100;-70
2021/11/17 13:52:35;;;;;;;33.55;15.65;;;;;;;1.82;54.23;101097.97;1691526;84;21254;-69
2021/11/17 13:55:06;;;;;;;41.18;17.42;;;;;;;1.58;55.10;101090.68;1703883;83;21295;-70
2021/11/17 13:57:33;;;;;;;41.80;18.10;;;;;;;1.36;55.68;101095.12;1699920;82;21057;-69
2021/11/17 14:00:03;;;;;;;37.93;18.42;;;;;;;1.10;56.94;101088.18;1685398;83;21068;-68
2021/11/17 14:02:33;;;;;;;38.58;16.65;;;;;;;0.93;57.88;101085.30;1691120;83;21038;-69
2021/11/17 14:05:04;;;;;;;40.78;16.40;;;;;;;0.75;58.69;101093.63;1684511;83;21469;-70
2021/11/17 14:07:32;;;;;;;44.77;19.60;;;;;;;0.63;59.38;101094.27;1710191;83;21038;-70
2021/11/17 14:10:01;;;;;;;34.35;13.10;;;;;;;0.53;59.64;101094.92;1703932;83;21118;-71
2021/11/17 14:12:27;;;;;;;42.33;16.82;;;;;;;0.41;60.34;101092.97;1712990;82;21076;-70
2021/11/17 14:14:54;;;;;;;48.45;18.10;;;;;;;0.35;60.69;101092.87;1692039;82;21045;-69
2021/11/17 14:17:21;;;;;;;42.45;18.87;;;;;;;0.24;61.08;101086.59;1702030;83;21537;-71
2021/11/17 14:19:48;;;;;;;42.98;19.20;;;;;;;0.19;60.87;101080.89;1696726;83;22133;-70
2021/11/17 14:22:15;;;;;;;38.58;18.35;;;;;;;0.13;61.27;101078.16;1717449;83;21002;-68
2021/11/17 14:24:43;;;;;;;39.70;15.70;;;;;;;0.08;61.76;101074.61;1709220;82;21117;-70
2021/11/17 14:27:11;;;;;;;43.48;18.98;;;;;;;0.01;62.10;101079.21;1738350;82;21045;-70
2021/11/17 14:29:45;;;;;;;36.63;17.73;;;;;;;-0.06;62.37;101072.16;1726881;82;21130;-70
2021/11/17 14:32:17;;;;;;;32.98;12.07;;;;;;;-0.14;62.61;101062.04;1732261;82;21105;-71
2021/11/17 14:34:44;;;;;;;41.75;13.88;;;;;;;-0.19;63.02;101069.70;1719511;82;21547;-71
2021/11/17 14:37:11;;;;;;;45.28;17.95;;;;;;;-0.25;63.36;101068.30;1719533;83;21581;-70